Historyczne dane pomiarowe

Dodano dane terminowe – wersja testowa.

Dane z okresu 1951-2019

Wersja bazy: 1.34 [2019-03-16, lista zmian], aktualizacja planowana na 2019-04-15

Dane meteo z obszaru Polski uzyskane na podstawie danych udostępnionych przez Instytut Meteorologii i Gospodarki Wodnej – Państwowy Instytut Badawczy.

 

Wybierz Datę:    

       

TemperaturaWilgotnośćWiatrCiśnienieOpadyŚniegCzas trwania zjawisk
 Stacja t tx tn tng RH VA  wxwx mslp ppp RRR   cm mm wxwxwxwxwxwxwx
1987-08-14 7.0 9.7 4.6- 99.4 10.0 7.6 12.4 17.5 12.5- 835.9 0.8 0.7 0.1- 0.0 1.9 4.5-- 24.0---
1987-08-13 4.6 7.0 1.9- 97.6 8.3 6.9 2.6 0.0 0.0- 839.6 0.0 0.0 0.0- 0.0 2.3 4.7-- 18.6---
1987-08-12 4.0 6.2 2.0- 91.6 7.4 5.4 6.8 7.5 0.0- 839.0 11.5 0.0 11.5- 0.0 4.8 0.3-- 5.5---
1987-08-11 2.6 3.6 1.4- 98.4 7.3 6.8 12.5 13.7 8.3- 838.0 0.0 0.0 0.0- 0.0 2.5--- 17.6---
1987-08-10 4.2 7.9 3.4- 97.5 8.1 6.8 10.4 12.5 0.5- 835.1 3.4 3.3 0.1- 0.0 1.9 3.5-- 18.7-- 2.0
1987-08-09 7.1 10.1 5.3- 90.8 9.1 7.0 4.1 0.0 0.0- 837.7 5.6 0.6 5.0- 0.0 3.8 2.7-- 3.3-- 1.3
1987-08-08 4.9 7.0 2.2- 92.6 8.1 5.8 12.8 19.5 2.0- 837.8 0.1 0.1 0.0- 0.0 6.6 1.2-- 3.1---
1987-08-07 2.1 4.2 -0.3- 90.0 6.4 6.0 5.9 6.0 0.0- 834.7 0.0 0.0 0.0- 0.0 5.1--- 8.2- 2.5-
1987-08-06 0.1 1.5 -0.7- 99.1 6.1 7.5 12.6 23.5 1.3- 832.2 1.1 1.0 0.1- 0.0 0.1- 2.4 0.7 23.5---
1987-08-05 1.5 3.4 0.9- 96.1 6.6 5.9 12.5 16.2 10.3- 833.2 1.1 0.6 0.5- 0.0 1.6 1.3- 0.7 19.3---
1987-08-04 4.2 7.1 2.4- 93.0 7.7 6.4 15.8 23.2 12.2- 832.7 0.0 0.0 0.0- 0.0 5.9 0.7-- 10.8---
1987-08-03 4.5 7.0 2.5- 98.0 8.3 7.0 12.0 14.0 7.0- 833.1 2.9 0.1 2.8- 0.0 0.9 1.5-- 20.2---
1987-08-02 2.9 5.1 1.5- 98.4 7.4 7.4 14.4 22.0 12.0- 831.3 1.3 1.1 0.2- 0.0 0.4 7.6-- 20.8---
1987-08-01 6.0 8.0 4.3- 99.3 9.3 7.8 14.1 22.8 11.8- 833.0 11.0 10.8 0.2- 0.0 1.0 8.9-- 20.7---
1987-07-31 5.4 10.1 3.3- 99.0 8.9 7.5 8.8 13.7 0.0- 834.8 1.2 0.3 0.9- 0.0 0.4 2.1-- 21.2---
1987-07-30 8.6 12.0 5.1- 94.4 10.5 7.1 5.8 0.0 0.0- 836.2 3.6 0.0 3.6- 0.0 7.0 2.2-- 13.3---
1987-07-29 3.9 5.3 1.6- 99.3 8.0 7.8 6.4 4.2 0.5- 836.4 0.9 0.8 0.1- 0.0 0.0 8.2-- 24.0---
1987-07-28 2.7 5.2 0.9- 99.8 7.4 7.9 17.0 23.0 17.0- 832.1 0.5 0.5 0.0- 0.0 0.1 5.5-- 24.0---
1987-07-27 1.9 3.8 -0.2- 99.8 7.0 8.0 21.5 24.0 22.0- 830.8 9.5 1.4 8.1- 0.0 0.0 11.2-- 23.5---
1987-07-26 2.4 6.1 1.4- 91.4 6.7 7.0 8.8 8.3 5.8- 834.0 0.4 0.2 0.2- 0.0 3.3 1.0-- 12.4---
1987-07-25 7.4 10.5 6.1- 92.5 9.6 6.8 9.1 14.8 0.0- 835.6 0.5 0.1 0.4- 0.0 2.1 3.8-- 8.3---
1987-07-24 10.8 13.1 9.8- 87.4 11.3 6.0 5.9 1.0 0.0- 840.0 0.0 0.0 0.0- 0.0 8.6--- 7.2---
1987-07-23 11.4 14.8 9.2- 82.0 11.0 4.6 4.4 0.0 0.0- 842.1 0.0 0.0 0.0- 0.0 4.6--- 3.1---
1987-07-22 10.2 13.1 7.5- 87.9 11.0 5.1 1.6 0.0 0.0- 840.6 0.0 0.0 0.0- 0.0 5.3--- 4.8---
1987-07-21 8.3 10.0 6.8- 93.8 10.2 6.4 3.6 0.0 0.0- 837.8 4.8 4.8 0.0- 0.0 0.2 6.4-- 14.8---
1987-07-20 8.9 11.9 7.3- 94.0 10.7 6.1 5.0 0.5 0.0- 836.2 0.1 0.0 0.1- 0.0 7.5 5.2-- 12.4---
1987-07-19 10.3 14.1 8.5-100.0 12.7 8.0 4.3 5.3 0.8- 835.5 32.9 1.2 31.7- 0.0 0.0 6.3-- 24.0-- 0.6
1987-07-18 14.2 16.0 12.7- 90.4 14.6 6.8 4.8 6.5 0.0- 834.0 0.7 0.4 0.3- 0.0 2.8 0.2-- 13.3---
1987-07-17 13.9 17.9 11.7- 89.8 14.1 6.9 14.3 15.5 6.5- 831.3 0.0 0.0 0.0- 0.0 4.4 2.2-- 10.5---
1987-07-16 14.6 18.6 11.0- 80.9 13.3 6.5 5.1 5.7 2.7- 839.4 0.2 0.0 0.2- 0.0 6.4 0.1-- 6.3-- 3.8
1987-07-15 11.0 15.1 6.9- 71.4 9.3 4.0 4.8 1.0 0.0- 842.2 0.0 0.0 0.0- 0.0 14.4--- 2.2---
1987-07-14 7.3 10.6 3.6- 82.4 8.4 3.6 5.3 0.3 0.0- 843.2 0.0 0.0 0.0- 0.0 9.8--- 2.2---
1987-07-13 6.6 9.3 6.0- 90.5 8.8 6.5 11.3 13.0 7.0- 840.2 0.0 0.0 0.0- 0.0 4.5--- 10.7---
1987-07-12 10.9 13.8 9.3- 87.0 11.3 6.9 14.5 19.5 9.6- 837.8 3.8 3.8 0.0- 0.0 2.5 0.5-- 6.9-- 0.5
1987-07-11 8.1 11.0 3.8- 91.5 10.0 6.5 13.9 14.7 9.2- 841.1 0.0 0.0 0.0- 0.0 4.9--- 7.9---
1987-07-10 3.8 7.0 1.8- 83.6 6.7 5.3 14.4 17.0 8.0- 840.7 0.0 0.0 0.0- 0.0 5.0--- 3.7---
1987-07-09 6.6 12.0 5.6- 96.0 9.4 6.4 14.9 22.3 12.5- 837.9 0.2 0.2 0.0- 0.0 2.7--- 15.1---
1987-07-08 11.5 14.4 10.6- 93.8 12.7 6.3 6.8 9.5 0.0- 839.1 16.5 3.8 12.7- 0.0 1.3 8.9-- 14.0-- 2.3
1987-07-07 10.9 14.0 7.8- 75.4 9.9 3.9 15.1 18.5 15.0- 842.2 0.0 0.0 0.0- 0.0 14.2-------
1987-07-06 8.9 13.9 5.0- 83.4 9.3 2.8 7.4 9.0 0.0- 846.8 0.0 0.0 0.0- 0.0 12.6--- 5.7---
1987-07-05 4.6 7.4 2.4- 95.8 8.1 6.8 10.0 15.0 0.0- 845.2 0.1 0.0 0.1- 0.0 7.0--- 15.0---
1987-07-04 7.8 9.6 7.1- 97.0 10.3 7.8 5.3 4.5 0.0- 845.1 0.1 0.0 0.1- 0.0 0.9--- 16.8---
1987-07-03 9.2 11.1 7.6- 88.0 10.2 4.1 5.6 0.0 0.0- 846.1 0.0 0.0 0.0- 0.0 8.4--- 9.3---
1987-07-02 8.5 13.6 6.6- 94.8 10.6 6.8 6.6 3.0 0.0- 845.1 0.0 0.0 0.0- 0.0 1.6 4.3-- 8.2-- 1.3
1987-07-01 15.2 19.8 13.6- 93.4 16.0 5.3 4.6 0.0 0.0- 843.8 14.6 0.7 13.9- 0.0 6.1 2.6-- 11.2-- 0.9
1987-06-30 14.9 18.0 12.8- 87.0 14.6 1.3 5.6 0.0 0.0- 847.7 0.0 0.0 0.0- 0.0 14.5--- 6.4---
1987-06-29 12.4 15.5 9.0- 93.5 13.5 5.0 3.5 0.0 0.0- 850.2 0.0 0.0 0.0- 0.0 6.0--- 4.8---
1987-06-28 9.4 11.6 6.9- 96.5 11.4 6.9 11.6 12.2 6.5- 845.3 0.2 0.0 0.2- 0.0 4.1 2.8-- 15.8---
1987-06-27 7.9 10.0 6.5- 98.9 10.5 7.6 3.9 1.5 0.0- 841.1 0.4 0.4 0.0- 0.0 1.3 1.8-- 24.0---
1987-06-26 6.9 10.2 3.2- 94.8 9.5 7.4 10.5 14.0 3.0- 837.7 0.4 0.0 0.4- 0.0 3.6 1.4-- 9.6---
1987-06-25 3.2 5.4 2.3- 99.3 7.7 7.6 12.3 13.2 6.5- 837.4 0.9 0.9 0.0- 0.0 0.5 5.5-- 24.0---
1987-06-24 4.3 5.8 2.8- 99.1 8.3 7.6 9.6 17.3 1.8- 837.1 7.2 7.2 0.0- 0.0 2.5 2.1-- 20.4-- 0.6
1987-06-23 4.9 6.8 2.3- 92.6 8.0 6.8 8.5 7.2 0.0- 840.4 1.8 1.8 0.0- 0.0 0.6 5.5-- 15.2---
1987-06-22 3.3 6.0 2.2- 98.8 7.7 7.9 7.6 10.5 0.0- 840.8 8.1 8.1 0.0- 0.0 0.0 12.8-- 19.2---
1987-06-21 5.8 7.6 4.5- 97.8 9.0 7.8 5.6 3.5 0.0- 836.4 18.3 5.5 12.8- 0.0 0.0 12.7-- 17.7---
1987-06-20 5.1 7.2 3.3- 98.8 8.7 7.5 8.6 11.5 0.5- 831.0 0.2 0.0 0.2- 0.0 0.4 0.4-- 17.2---
1987-06-19 1.5 3.7 -0.7- 99.3 6.8 7.8 10.1 9.2 5.2- 830.2 1.8 1.7 0.1 1 0.0 0.3 1.0 2.5 0.5 22.0---
1987-06-18 -0.3 1.1 -1.7- 99.3 5.9 8.0 10.1 12.7 4.5- 829.8 0.5 0.3 0.2 2 0.0 0.7- 8.7- 23.0-- 0.4
1987-06-17 0.0 1.8 -1.4- 96.3 5.9 7.3 11.9 10.5 2.5- 833.2 2.0 0.0 2.0- 0.0 5.2 0.5 0.8 0.4 15.6-- 0.2
1987-06-16 1.3 9.5 0.0- 99.5 6.7 7.9 21.6 24.0 24.0- 826.6 0.2 0.2 0.0- 0.0 0.0 7.2- 1.0 23.5---
341.5 ms

 

Źródłem pochodzenia danych jest Instytut Meteorologii i Gospodarki Wodnej – Państwowy Instytut Badawczy. Dane Instytutu Meteorologii i Gospodarki Wodnej – Państwowego Instytutu Badawczego zostały przetworzone.

Dane źródłowe można odnaleźć na stronie https://dane.imgw.pl